Hilo, HI (96720)

6:07 PM HST on October 21, 2014 (GMT -1000)
Hilo International | Change Station
CLOSE
Current Station
Airport
Location: Hilo,
Elevation: 36 ft
Nearby Weather Stations

Elev 36 ft 19.72 °N, 155.05 °W | Updated 14 minutes ago

Partly Cloudy
Partly Cloudy
79 °F
Feels Like 79 °F
N
5
Wind Variable Wind from SSE

Today
High -- | Low -- °F
--% Chance of Precip.
Yesterday
High -- | Low -- °F
Precip. -- in
6:17 AM 5:52 PM
Waning Crescent, 3% visible
Pressure 29.97 in
Visibility 10.0 miles
Clouds Few 8000 ft
Dew Point 71 °F
Humidity 77%
Rainfall 0.00 in
Snow Depth Not available.
UV 0 out of 12
Pollen Not available.
Air Quality Not available.
Flu Activity Sporadic
METAR PHTO 220353Z 15004KT 10SM FEW080 26/22 A2997 RMK AO2 SLP147 T02610217

More Conditions Fewer Conditions

Pressure 29.97 in
Visibility 10.0 miles
Clouds Few 8000 ft
Dew Point 71 °F
Humidity 77%
Rainfall 0.00 in
Snow Depth Not available.
UV 0 out of 12
Pollen Not available.
Air Quality Not available.
Flu Activity Sporadic
METAR PHTO 220353Z 15004KT 10SM FEW080 26/22 A2997 RMK AO2 SLP147 T02610217

More Conditions Fewer Conditions

10-Day Weather Forecast

Almanac

Astronomy

Oct. 21, 2014 Rise Set
Actual Time 6:17 AM HST 5:52 PM HST
Civil Twilight 5:54 AM HST 6:14 PM HST
Nautical Twilight 5:28 AM HST 6:40 PM HST
Astronomical Twilight 5:03 AM HST 7:06 PM HST
Moon 4:27 AM HST (10/21) 4:39 PM HST (10/21)
Length of Visible Light 12h 20m
Length of Day
11h 35m
Tomorrow will be 1m 2s shorter.
Waning Crescent, 3% of the Moon is Illuminated
Oct 22
Waning Crescent
Oct 23
New
Oct 30
First Quarter
Nov 6
Full
Nov 14
Last Quarter

Today's Extremes

State Highs State Lows

Community

WunderPhotos

Upload Photos

1,763,879 photos uploaded!

Nearby

Snow Depth

Station Depth Elevation
No new snow has been reported.

Earthquake Activity

City Distance Mag. Time & Date
No recent earthquake activity has been reported nearby.
Minimum magnitude displayed is 2.5.

Coastal Water Temperatures

Place Temperature
No Stations Reporting

Nearby Weather Stations